createdAt,value
2023-10-10T00:02:20.108Z,2.70
2023-10-10T00:04:51.148Z,2.60
2023-10-10T00:07:20.458Z,2.50
2023-10-10T00:09:51.428Z,2.40
2023-10-10T00:12:21.088Z,2.40
2023-10-10T00:14:51.962Z,2.50
2023-10-10T00:17:22.168Z,2.40
2023-10-10T00:19:56.329Z,2.50
2023-10-10T00:22:35.608Z,2.40
2023-10-10T00:25:14.013Z,2.30
2023-10-10T00:27:44.872Z,2.20
2023-10-10T00:30:13.534Z,2.20
2023-10-10T00:32:44.027Z,2.00
2023-10-10T00:35:13.994Z,2.10
2023-10-10T00:37:42.275Z,2.10
2023-10-10T00:40:11.505Z,2.10
2023-10-10T00:42:42.617Z,2.10
2023-10-10T00:45:13.820Z,2.20
2023-10-10T00:47:44.905Z,2.10
2023-10-10T00:50:17.500Z,2.10
2023-10-10T00:52:46.418Z,2.00
2023-10-10T00:55:15.100Z,1.90
2023-10-10T00:57:44.311Z,1.90
2023-10-10T01:00:16.590Z,2.00
2023-10-10T01:02:45.353Z,2.00
2023-10-10T01:05:15.813Z,1.90
2023-10-10T01:07:48.409Z,1.90
2023-10-10T01:10:18.266Z,1.90
2023-10-10T01:12:48.016Z,1.90
2023-10-10T01:15:17.645Z,1.90
2023-10-10T01:17:46.815Z,1.80
2023-10-10T01:20:26.229Z,1.80
2023-10-10T01:22:57.960Z,1.80
2023-10-10T01:25:43.968Z,1.80
2023-10-10T01:28:32.550Z,1.70
2023-10-10T01:31:05.124Z,1.70
2023-10-10T01:33:43.622Z,1.80
2023-10-10T01:36:14.506Z,1.70
2023-10-10T01:39:01.160Z,1.80
2023-10-10T01:41:39.745Z,1.80
2023-10-10T01:44:14.580Z,1.90
2023-10-10T01:46:43.469Z,1.90
2023-10-10T01:49:16.162Z,1.90
2023-10-10T01:51:45.100Z,1.90
2023-10-10T01:54:19.989Z,1.90
2023-10-10T01:56:48.528Z,2.00
2023-10-10T01:59:21.105Z,2.00
2023-10-10T02:01:50.164Z,1.90
2023-10-10T02:04:23.100Z,1.90
2023-10-10T02:06:58.190Z,1.80
2023-10-10T02:09:35.240Z,1.80
2023-10-10T02:12:18.149Z,1.80
2023-10-10T02:14:46.650Z,1.80
2023-10-10T02:17:28.314Z,1.80
2023-10-10T02:20:00.606Z,1.90
2023-10-10T02:22:49.528Z,1.80
2023-10-10T02:25:40.506Z,1.90
2023-10-10T02:28:21.186Z,1.90
2023-10-10T02:30:53.894Z,1.80
2023-10-10T02:33:32.516Z,1.80
2023-10-10T02:36:01.079Z,1.80
2023-10-10T02:38:41.155Z,1.70
2023-10-10T02:41:24.578Z,1.70
2023-10-10T02:43:58.254Z,1.60
2023-10-10T02:46:35.702Z,1.60
2023-10-10T02:49:10.906Z,1.50
2023-10-10T02:51:42.910Z,1.50
2023-10-10T02:54:23.810Z,1.50
2023-10-10T02:56:57.644Z,1.60
2023-10-10T02:59:32.627Z,1.50
2023-10-10T03:02:10.294Z,1.50
2023-10-10T03:05:07.082Z,1.40
2023-10-10T03:07:43.312Z,1.40
2023-10-10T03:10:31.133Z,1.30
2023-10-10T03:13:07.029Z,1.20
2023-10-10T03:15:38.848Z,1.10
2023-10-10T03:18:19.464Z,1.00
2023-10-10T03:21:08.038Z,1.00
2023-10-10T03:23:44.650Z,0.90
2023-10-10T03:26:32.439Z,0.80
2023-10-10T03:29:05.983Z,0.80
2023-10-10T03:31:43.473Z,0.90
2023-10-10T03:34:22.604Z,0.90
2023-10-10T03:37:09.729Z,1.00
2023-10-10T03:39:51.263Z,1.10
2023-10-10T03:42:36.861Z,1.20
2023-10-10T03:45:24.383Z,1.40
2023-10-10T03:48:11.258Z,1.40
2023-10-10T03:51:00.403Z,1.40
2023-10-10T03:53:46.122Z,1.40
2023-10-10T03:56:52.800Z,1.40
2023-10-10T03:59:38.765Z,1.40
2023-10-10T04:02:26.345Z,1.30
2023-10-10T04:05:26.904Z,1.30
2023-10-10T04:08:13.624Z,1.30
2023-10-10T04:11:04.488Z,1.40
2023-10-10T04:13:50.203Z,1.30
2023-10-10T04:16:36.272Z,1.30
2023-10-10T04:19:23.450Z,1.30
2023-10-10T04:22:08.911Z,1.30
2023-10-10T04:24:54.556Z,1.30
2023-10-10T04:27:54.591Z,1.30
2023-10-10T04:30:40.405Z,1.40
2023-10-10T04:33:26.083Z,1.40
2023-10-10T04:36:13.193Z,1.40
2023-10-10T04:38:58.933Z,1.30
2023-10-10T04:41:45.864Z,1.30
2023-10-10T04:44:33.716Z,1.30
2023-10-10T04:47:18.987Z,1.40
2023-10-10T04:50:04.879Z,1.40
2023-10-10T04:52:52.950Z,1.40
2023-10-10T04:55:38.860Z,1.30
2023-10-10T04:58:23.871Z,1.40
2023-10-10T05:01:09.727Z,1.30
2023-10-10T05:03:55.111Z,1.30
2023-10-10T05:06:40.828Z,1.40
2023-10-10T05:09:27.848Z,1.40
2023-10-10T05:12:13.849Z,1.30
2023-10-10T05:14:59.716Z,1.40
2023-10-10T05:17:45.376Z,1.40
2023-10-10T05:20:27.766Z,1.40
2023-10-10T05:23:13.589Z,1.40
2023-10-10T05:25:43.361Z,1.40
2023-10-10T05:28:12.415Z,1.50
2023-10-10T05:30:45.584Z,1.50
2023-10-10T05:33:14.354Z,1.50
2023-10-10T05:35:45.289Z,1.50
2023-10-10T05:38:13.635Z,1.50
2023-10-10T05:40:44.677Z,1.60
2023-10-10T05:43:17.504Z,1.50
2023-10-10T05:45:52.168Z,1.50
2023-10-10T05:48:20.624Z,1.60
2023-10-10T05:50:51.158Z,1.60
2023-10-10T05:53:19.569Z,1.60
2023-10-10T05:55:52.799Z,1.60
2023-10-10T05:58:23.329Z,1.70
2023-10-10T06:00:51.710Z,1.70
2023-10-10T06:03:20.512Z,1.70
2023-10-10T06:05:51.293Z,1.70
2023-10-10T06:08:19.699Z,1.70
2023-10-10T06:10:49.534Z,1.80
2023-10-10T06:13:17.949Z,1.80
2023-10-10T06:15:46.213Z,1.80
2023-10-10T06:18:15.065Z,1.80
2023-10-10T06:23:17.175Z,1.90
2023-10-10T06:25:47.222Z,2.00
2023-10-10T06:28:27.590Z,2.00
2023-10-10T06:30:56.121Z,2.00
2023-10-10T06:33:29.506Z,2.20
2023-10-10T06:36:21.425Z,2.20
2023-10-10T06:39:01.086Z,2.30
2023-10-10T06:41:35.444Z,2.40
2023-10-10T06:44:06.518Z,2.50
2023-10-10T06:46:38.420Z,2.50
2023-10-10T06:49:06.972Z,2.50
2023-10-10T06:51:41.213Z,2.50
2023-10-10T06:54:10.846Z,2.60
2023-10-10T06:56:55.385Z,2.60
2023-10-10T06:59:28.788Z,2.70
2023-10-10T07:01:58.490Z,2.70
2023-10-10T07:04:28.726Z,2.70
2023-10-10T07:07:04.458Z,2.80
2023-10-10T07:09:32.688Z,2.70
2023-10-10T07:12:11.687Z,2.80
2023-10-10T07:14:45.106Z,2.80
2023-10-10T07:17:13.881Z,2.90
2023-10-10T07:22:39.812Z,3.00
2023-10-10T07:25:19.724Z,3.10
2023-10-10T07:27:48.248Z,3.20
2023-10-10T07:30:18.164Z,3.20
2023-10-10T07:32:50.247Z,3.20
2023-10-10T07:35:20.541Z,3.30
2023-10-10T07:37:53.826Z,3.30
2023-10-10T07:40:23.371Z,3.50
2023-10-10T07:42:52.455Z,3.50
2023-10-10T07:45:30.695Z,3.70
2023-10-10T07:48:12.854Z,3.70
2023-10-10T07:50:57.995Z,3.80
2023-10-10T07:53:33.118Z,3.90
2023-10-10T07:56:02.547Z,3.90
2023-10-10T07:58:52.499Z,4.00
2023-10-10T08:01:22.025Z,4.10
2023-10-10T08:03:50.759Z,4.20
2023-10-10T08:06:23.441Z,4.30
2023-10-10T08:09:12.074Z,4.30
2023-10-10T08:11:40.928Z,4.40
2023-10-10T08:14:10.197Z,4.50
2023-10-10T08:16:39.867Z,4.60
2023-10-10T08:19:09.654Z,4.70
2023-10-10T08:21:39.806Z,4.70
2023-10-10T08:24:13.408Z,4.80
2023-10-10T08:26:42.199Z,4.90
2023-10-10T08:29:13.745Z,5.00
2023-10-10T08:31:43.539Z,5.10
2023-10-10T08:34:11.822Z,5.20
2023-10-10T08:36:45.140Z,5.30
2023-10-10T08:39:26.704Z,5.40
2023-10-10T08:41:55.444Z,5.50
2023-10-10T08:44:25.059Z,5.50
2023-10-10T08:46:56.694Z,5.60
2023-10-10T08:49:26.848Z,5.70
2023-10-10T08:51:57.265Z,5.70
2023-10-10T08:54:29.486Z,5.70
2023-10-10T08:57:02.312Z,5.80
2023-10-10T08:59:31.758Z,5.90
2023-10-10T09:02:10.123Z,5.90
2023-10-10T09:04:38.568Z,6.00
2023-10-10T09:07:12.633Z,6.10
2023-10-10T09:09:44.598Z,6.20
2023-10-10T09:12:16.107Z,6.30
2023-10-10T09:14:51.143Z,6.40
2023-10-10T09:17:29.901Z,6.50
2023-10-10T09:19:59.495Z,6.60
2023-10-10T09:22:31.680Z,6.70
2023-10-10T09:25:18.942Z,6.70
2023-10-10T09:27:58.620Z,6.70
2023-10-10T09:30:32.780Z,6.70
2023-10-10T09:33:14.496Z,6.80
2023-10-10T09:35:50.022Z,6.80
2023-10-10T09:38:22.027Z,7.00
2023-10-10T09:41:11.895Z,7.00
2023-10-10T09:43:50.560Z,7.10
2023-10-10T09:46:25.355Z,7.20
2023-10-10T09:49:30.394Z,7.30
2023-10-10T09:52:16.276Z,7.30
2023-10-10T09:54:46.828Z,7.30
2023-10-10T09:57:19.344Z,7.40
2023-10-10T09:59:54.590Z,7.40
2023-10-10T10:02:42.026Z,7.40
2023-10-10T10:05:15.362Z,7.50
2023-10-10T10:07:57.935Z,7.50
2023-10-10T10:10:49.390Z,7.60
2023-10-10T10:13:27.929Z,7.60
2023-10-10T10:16:10.585Z,7.80
2023-10-10T10:18:47.021Z,7.90
2023-10-10T10:21:31.994Z,8.00
2023-10-10T10:24:14.492Z,8.10
2023-10-10T10:26:46.417Z,8.20
2023-10-10T10:29:29.579Z,8.20
2023-10-10T10:32:01.917Z,8.30
2023-10-10T10:34:37.831Z,8.40
2023-10-10T10:37:08.678Z,8.40
2023-10-10T10:39:38.137Z,8.40
2023-10-10T10:42:13.634Z,8.50
2023-10-10T10:44:56.015Z,8.60
2023-10-10T10:47:47.522Z,8.70
2023-10-10T10:50:42.425Z,8.60
2023-10-10T10:53:32.389Z,8.70
2023-10-10T10:56:21.394Z,8.70
2023-10-10T10:59:11.718Z,8.70
2023-10-10T11:01:52.901Z,8.80
2023-10-10T11:04:41.184Z,8.80
2023-10-10T11:07:09.905Z,8.90
2023-10-10T11:09:44.980Z,8.90
2023-10-10T11:12:14.821Z,8.90
2023-10-10T11:14:47.999Z,8.90
2023-10-10T11:17:21.058Z,8.90
2023-10-10T11:19:54.999Z,9.00
2023-10-10T11:22:37.453Z,9.10
2023-10-10T11:25:07.269Z,9.10
2023-10-10T11:27:44.984Z,9.30
2023-10-10T11:30:20.863Z,9.30
2023-10-10T11:32:51.000Z,9.40
2023-10-10T11:35:28.095Z,9.40
2023-10-10T11:38:10.241Z,9.50
2023-10-10T11:40:38.895Z,9.60
2023-10-10T11:43:07.624Z,9.70
2023-10-10T11:45:41.699Z,9.80
2023-10-10T11:48:16.439Z,9.80
2023-10-10T11:50:46.621Z,9.80
2023-10-10T11:53:15.837Z,9.80
2023-10-10T11:55:46.467Z,9.80
2023-10-10T11:58:18.858Z,9.80
2023-10-10T12:00:49.688Z,9.80
2023-10-10T12:03:33.351Z,9.90
2023-10-10T12:06:01.950Z,9.90
2023-10-10T12:08:30.205Z,9.90
2023-10-10T12:11:07.708Z,9.90
2023-10-10T12:13:45.840Z,9.90
2023-10-10T12:16:14.278Z,10.00
2023-10-10T12:18:51.398Z,10.00
2023-10-10T12:21:22.562Z,10.00
2023-10-10T12:23:51.794Z,10.10
2023-10-10T12:26:22.780Z,10.20
2023-10-10T12:28:53.937Z,10.20
2023-10-10T12:31:23.309Z,10.30
2023-10-10T12:33:55.195Z,10.30
2023-10-10T12:36:30.580Z,10.30
2023-10-10T12:39:01.067Z,10.30
2023-10-10T12:41:29.676Z,10.30
2023-10-10T12:43:57.956Z,10.30
2023-10-10T12:46:26.354Z,10.40
2023-10-10T12:48:56.256Z,10.40
2023-10-10T12:51:26.789Z,10.40
2023-10-10T12:54:02.030Z,10.50
2023-10-10T12:56:30.815Z,10.60
2023-10-10T12:59:23.679Z,10.60
2023-10-10T13:01:57.592Z,10.60
2023-10-10T13:04:33.726Z,10.50
2023-10-10T13:07:05.624Z,10.50
2023-10-10T13:09:34.516Z,10.60
2023-10-10T13:12:04.671Z,10.50
2023-10-10T13:14:35.293Z,10.40
2023-10-10T13:17:30.871Z,10.40
2023-10-10T13:20:01.175Z,10.50
2023-10-10T13:22:31.095Z,10.30
2023-10-10T13:24:59.812Z,10.40
2023-10-10T13:27:28.018Z,10.40
2023-10-10T13:29:56.516Z,10.40
2023-10-10T13:32:26.011Z,10.40
2023-10-10T13:34:54.421Z,10.40
2023-10-10T13:37:24.010Z,10.30
2023-10-10T13:39:56.082Z,10.10
2023-10-10T13:42:27.465Z,10.10
2023-10-10T13:45:10.724Z,10.00
2023-10-10T13:47:40.988Z,10.00
2023-10-10T13:50:27.005Z,9.90
2023-10-10T13:52:56.546Z,9.90
2023-10-10T13:55:25.048Z,9.90
2023-10-10T13:57:55.047Z,9.80
2023-10-10T14:00:31.079Z,9.80
2023-10-10T14:03:05.147Z,9.80
2023-10-10T14:05:35.771Z,9.70
2023-10-10T14:08:08.418Z,9.70
2023-10-10T14:10:37.244Z,9.70
2023-10-10T14:13:20.487Z,9.70
2023-10-10T14:15:57.696Z,9.70
2023-10-10T14:18:28.779Z,9.70
2023-10-10T14:20:57.647Z,9.60
2023-10-10T14:23:27.337Z,9.60
2023-10-10T14:26:04.733Z,9.50
2023-10-10T14:28:33.454Z,9.50
2023-10-10T14:31:01.966Z,9.40
2023-10-10T14:33:31.490Z,9.40
2023-10-10T14:36:00.086Z,9.30
2023-10-10T14:38:33.268Z,9.30
2023-10-10T14:41:04.762Z,9.30
2023-10-10T14:43:34.346Z,9.20
2023-10-10T14:46:02.665Z,9.20
2023-10-10T14:48:31.764Z,9.20
2023-10-10T14:51:00.152Z,9.10
2023-10-10T14:53:36.032Z,9.10
2023-10-10T14:56:06.689Z,9.00
2023-10-10T14:58:37.230Z,9.00
2023-10-10T15:01:05.398Z,9.00
2023-10-10T15:03:42.632Z,8.90
2023-10-10T15:06:11.193Z,8.90
2023-10-10T15:08:44.758Z,8.90
2023-10-10T15:11:15.379Z,8.90
2023-10-10T15:13:43.649Z,8.80
2023-10-10T15:16:12.533Z,8.80
2023-10-10T15:18:43.573Z,8.80
2023-10-10T15:21:13.503Z,8.70
2023-10-10T15:23:45.099Z,8.70
2023-10-10T15:26:19.014Z,8.60
2023-10-10T15:28:47.234Z,8.60
2023-10-10T15:31:17.090Z,8.50
2023-10-10T15:33:46.228Z,8.50
2023-10-10T15:36:17.799Z,8.50
2023-10-10T15:38:47.920Z,8.40
2023-10-10T15:41:21.135Z,8.40
2023-10-10T15:43:50.090Z,8.40
2023-10-10T15:46:18.927Z,8.40
2023-10-10T15:48:50.861Z,8.40
2023-10-10T15:51:21.620Z,8.30
2023-10-10T15:53:51.648Z,8.20
2023-10-10T15:56:21.816Z,8.20
2023-10-10T15:58:52.253Z,8.20
2023-10-10T16:01:24.226Z,8.10
2023-10-10T16:03:53.335Z,8.10
2023-10-10T16:06:23.636Z,8.10
2023-10-10T16:08:53.843Z,8.10
2023-10-10T16:11:22.704Z,8.00
2023-10-10T16:13:51.270Z,8.00
2023-10-10T16:16:20.221Z,8.00
2023-10-10T16:18:49.018Z,8.00
2023-10-10T16:21:17.820Z,7.90
2023-10-10T16:23:47.009Z,7.90
2023-10-10T16:26:18.121Z,7.90
2023-10-10T16:28:48.938Z,7.80
2023-10-10T16:31:18.592Z,7.80
2023-10-10T16:33:47.105Z,7.80
2023-10-10T16:36:18.708Z,7.80
2023-10-10T16:38:51.155Z,7.80
2023-10-10T16:41:21.263Z,7.70
2023-10-10T16:44:00.313Z,7.70
2023-10-10T16:46:32.568Z,7.70
2023-10-10T16:49:01.169Z,7.70
2023-10-10T16:51:33.630Z,7.60
2023-10-10T16:54:07.827Z,7.70
2023-10-10T16:56:37.706Z,7.60
2023-10-10T16:59:07.650Z,7.70
2023-10-10T17:01:36.089Z,7.70
2023-10-10T17:04:04.608Z,7.60
2023-10-10T17:06:33.169Z,7.60
2023-10-10T17:09:01.684Z,7.60
2023-10-10T17:11:30.068Z,7.50
2023-10-10T17:14:04.801Z,7.50
2023-10-10T17:16:35.457Z,7.50
2023-10-10T17:19:16.445Z,7.40
2023-10-10T17:21:48.912Z,7.40
2023-10-10T17:24:20.231Z,7.40
2023-10-10T17:26:56.190Z,7.30
2023-10-10T17:29:27.933Z,7.40
2023-10-10T17:31:56.162Z,7.30
2023-10-10T17:34:32.527Z,7.30
2023-10-10T17:37:00.878Z,7.30
2023-10-10T17:39:33.875Z,7.30
2023-10-10T17:42:02.430Z,7.30
2023-10-10T17:44:33.785Z,7.30
2023-10-10T17:47:01.993Z,7.30
2023-10-10T17:49:30.367Z,7.30
2023-10-10T17:52:00.130Z,7.30
2023-10-10T17:54:30.054Z,7.40
2023-10-10T17:56:58.547Z,7.30
2023-10-10T17:59:26.822Z,7.30
2023-10-10T18:01:56.603Z,7.20
2023-10-10T18:04:27.321Z,7.20
2023-10-10T18:06:55.811Z,7.20
2023-10-10T18:09:23.967Z,7.20
2023-10-10T18:11:52.353Z,7.20
2023-10-10T18:14:20.504Z,7.20
2023-10-10T18:16:49.670Z,7.20
2023-10-10T18:19:20.674Z,7.10
2023-10-10T18:21:49.085Z,7.10
2023-10-10T18:24:17.423Z,7.10
2023-10-10T18:26:46.417Z,7.10
2023-10-10T18:29:17.105Z,7.10
2023-10-10T18:31:45.514Z,7.10
2023-10-10T18:34:14.785Z,7.10
2023-10-10T18:36:44.669Z,7.10
2023-10-10T18:39:15.151Z,7.20
2023-10-10T18:41:44.196Z,7.10
2023-10-10T18:44:17.178Z,7.10
2023-10-10T18:46:45.810Z,7.20
2023-10-10T18:49:16.311Z,7.10
2023-10-10T18:51:46.241Z,7.10
2023-10-10T18:54:14.634Z,7.10
2023-10-10T18:56:43.148Z,7.20
2023-10-10T18:59:12.710Z,7.20
2023-10-10T19:01:45.390Z,7.30
2023-10-10T19:04:15.478Z,7.30
2023-10-10T19:06:43.997Z,7.40
2023-10-10T19:09:13.569Z,7.40
2023-10-10T19:11:44.810Z,7.40
2023-10-10T19:14:14.387Z,7.50
2023-10-10T19:16:44.793Z,7.40
2023-10-10T19:19:12.979Z,7.40
2023-10-10T19:21:43.205Z,7.50
2023-10-10T19:24:11.736Z,7.50
2023-10-10T19:26:42.477Z,7.50
2023-10-10T19:29:10.950Z,7.60
2023-10-10T19:31:41.447Z,7.60
2023-10-10T19:34:11.852Z,7.70
2023-10-10T19:36:40.439Z,7.80
2023-10-10T19:39:11.810Z,7.80
2023-10-10T19:41:41.752Z,7.80
2023-10-10T19:44:10.273Z,7.80
2023-10-10T19:46:41.170Z,7.80
2023-10-10T19:49:09.802Z,7.90
2023-10-10T19:51:42.462Z,7.80
2023-10-10T19:54:15.603Z,7.80
2023-10-10T19:56:46.626Z,7.80
2023-10-10T19:59:19.602Z,7.90
2023-10-10T20:01:47.907Z,7.90
2023-10-10T20:04:18.065Z,7.90
2023-10-10T20:06:48.433Z,8.00
2023-10-10T20:09:21.737Z,8.00
2023-10-10T20:11:51.627Z,8.00
2023-10-10T20:14:20.118Z,8.00
2023-10-10T20:16:51.383Z,8.10
2023-10-10T20:19:19.887Z,8.20
2023-10-10T20:21:48.614Z,8.20
2023-10-10T20:24:16.966Z,8.20
2023-10-10T20:26:45.266Z,8.20
2023-10-10T20:29:19.564Z,8.30
2023-10-10T20:31:47.804Z,8.30
2023-10-10T20:34:16.212Z,8.30
2023-10-10T20:36:47.784Z,8.50
2023-10-10T20:39:19.849Z,8.40
2023-10-10T20:41:49.886Z,8.40
2023-10-10T20:44:19.759Z,8.40
2023-10-10T20:46:49.401Z,8.40
2023-10-10T20:49:18.124Z,8.40
2023-10-10T20:51:46.799Z,8.40
2023-10-10T20:54:17.614Z,8.50
2023-10-10T20:56:45.969Z,8.50
2023-10-10T20:59:14.427Z,8.50
2023-10-10T21:01:44.077Z,8.50
2023-10-10T21:04:12.490Z,8.50
2023-10-10T21:06:40.636Z,8.60
2023-10-10T21:09:11.167Z,8.60
2023-10-10T21:11:41.137Z,8.50
2023-10-10T21:14:11.786Z,8.50
2023-10-10T21:16:41.793Z,8.50
2023-10-10T21:19:12.512Z,8.50
2023-10-10T21:21:43.000Z,8.50
2023-10-10T21:24:11.235Z,8.50
2023-10-10T21:26:39.953Z,8.50
2023-10-10T21:29:08.675Z,8.50
2023-10-10T21:31:37.724Z,8.50
2023-10-10T21:34:06.310Z,8.50
2023-10-10T21:36:36.092Z,8.50
2023-10-10T21:39:06.421Z,8.50
2023-10-10T21:41:34.761Z,8.50
2023-10-10T21:44:03.227Z,8.50
2023-10-10T21:46:31.435Z,8.50
2023-10-10T21:48:59.797Z,8.50
2023-10-10T21:51:28.005Z,8.60
2023-10-10T21:54:00.486Z,8.60
2023-10-10T21:56:29.103Z,8.60
2023-10-10T21:58:57.309Z,8.60
2023-10-10T22:01:25.903Z,8.60
2023-10-10T22:03:54.283Z,8.60
2023-10-10T22:06:22.580Z,8.70
2023-10-10T22:08:50.809Z,8.70
2023-10-10T22:11:20.875Z,8.70
2023-10-10T22:13:50.873Z,8.80
2023-10-10T22:16:19.871Z,8.80
2023-10-10T22:18:49.475Z,8.80
2023-10-10T22:21:20.964Z,8.80
2023-10-10T22:23:49.930Z,8.90
2023-10-10T22:26:18.211Z,8.90
2023-10-10T22:28:51.780Z,8.90
2023-10-10T22:31:20.131Z,8.90
2023-10-10T22:33:51.735Z,8.90
2023-10-10T22:36:20.320Z,9.00
2023-10-10T22:38:48.500Z,9.00
2023-10-10T22:41:19.833Z,8.90
2023-10-10T22:43:49.993Z,9.00
2023-10-10T22:46:21.358Z,9.00
2023-10-10T22:48:49.878Z,9.00
2023-10-10T22:51:18.651Z,9.10
2023-10-10T22:53:49.339Z,9.10
2023-10-10T22:56:19.463Z,9.10
2023-10-10T22:58:51.236Z,9.10
2023-10-10T23:01:19.517Z,9.20
2023-10-10T23:03:48.067Z,9.20
2023-10-10T23:06:16.831Z,9.30
2023-10-10T23:08:47.343Z,9.30
2023-10-10T23:11:18.201Z,9.30
2023-10-10T23:13:47.877Z,9.40
2023-10-10T23:16:18.864Z,9.30
2023-10-10T23:18:47.554Z,9.30
2023-10-10T23:21:16.253Z,9.40
2023-10-10T23:23:44.774Z,9.40
2023-10-10T23:26:13.927Z,9.40
2023-10-10T23:28:42.328Z,9.40
2023-10-10T23:31:10.579Z,9.50
2023-10-10T23:36:12.615Z,9.50
2023-10-10T23:38:45.539Z,9.50
2023-10-10T23:41:15.568Z,9.50
2023-10-10T23:43:47.858Z,9.60
2023-10-10T23:46:23.509Z,9.60
2023-10-10T23:48:56.160Z,9.60
2023-10-10T23:51:24.618Z,9.70
2023-10-10T23:53:53.042Z,9.60
2023-10-10T23:56:24.246Z,9.60
2023-10-10T23:58:53.318Z,9.70
